Time;durP1;ratioP1;P1;durP2;ratioP2;P2;SDS_P1;SDS_P2;PMS_P1;PMS_P2;Temp;Humidity;BMP_temperature;BMP_pressure;BME280_temperature;BME280_humidity;BME280_pressure;Samples;Min_cycle;Max_cycle;Signal;HPM_P1;HPM_P2
2021/12/29 00:01:40;;;;;;;228.88;18.48;;;;;;;-11.97;100.00;100678.97;5031606;28;20057;-65
2021/12/29 00:04:06;;;;;;;136.70;21.10;;;;;;;-11.99;100.00;100680.72;5030856;28;20193;-64
2021/12/29 00:06:32;;;;;;;102.47;17.83;;;;;;;-11.91;100.00;100681.66;5014919;28;20042;-64
2021/12/29 00:08:59;;;;;;;95.45;16.75;;;;;;;-11.88;100.00;100677.31;5032186;28;20064;-64
2021/12/29 00:11:25;;;;;;;44.13;12.05;;;;;;;-11.85;100.00;100666.91;5030356;28;20095;-64
2021/12/29 00:13:51;;;;;;;76.22;17.08;;;;;;;-11.92;100.00;100679.91;5015192;28;20053;-64
2021/12/29 00:16:17;;;;;;;122.15;17.30;;;;;;;-11.95;100.00;100685.09;5031876;28;20052;-62
2021/12/29 00:18:44;;;;;;;78.47;18.10;;;;;;;-12.00;100.00;100678.94;4997445;28;20048;-64
2021/12/29 00:21:10;;;;;;;58.83;16.23;;;;;;;-11.87;100.00;100689.50;5030630;28;20049;-64
2021/12/29 00:23:36;;;;;;;45.28;13.48;;;;;;;-11.93;100.00;100675.53;5030881;28;20056;-64
2021/12/29 00:26:03;;;;;;;52.30;10.45;;;;;;;-11.85;100.00;100674.75;4997276;28;20045;-63
2021/12/29 00:28:28;;;;;;;57.63;14.98;;;;;;;-11.80;100.00;100675.63;5013189;28;20048;-64
2021/12/29 00:30:54;;;;;;;88.60;16.20;;;;;;;-11.98;100.00;100656.41;4996606;28;20091;-63
2021/12/29 00:33:39;;;;;;;58.80;15.00;;;;;;;-11.87;100.00;100673.88;5030965;28;20041;-64
2021/12/29 00:36:24;;;;;;;63.58;16.27;;;;;;;-12.00;100.00;100663.31;5030819;28;20124;-63
2021/12/29 00:39:08;;;;;;;75.25;19.05;;;;;;;-11.98;100.00;100677.25;5029247;28;20049;-64
2021/12/29 00:42:12;;;;;;;78.93;20.13;;;;;;;-11.97;100.00;100678.97;4972909;28;20126;-66
2021/12/29 00:44:56;;;;;;;;;;;;;;;-11.95;100.00;100681.63;4989412;28;20050;-63
2021/12/29 00:47:22;;;;;;;54.33;18.30;;;;;;;-12.04;100.00;100671.97;4988646;28;19923;-65
2021/12/29 00:49:48;;;;;;;59.78;20.08;;;;;;;-12.28;100.00;100635.28;5032490;28;20049;-64
2021/12/29 00:52:14;;;;;;;50.35;16.17;;;;;;;-12.05;100.00;100685.88;5029858;28;20045;-64
2021/12/29 00:54:43;;;;;;;49.70;14.70;;;;;;;-12.05;100.00;100678.03;5029944;28;20046;-63
2021/12/29 00:57:09;;;;;;;83.65;20.38;;;;;;;-12.06;100.00;100678.91;5030194;28;20045;-63
2021/12/29 00:59:34;;;;;;;57.10;14.20;;;;;;;-12.06;100.00;100672.84;5030852;28;20045;-64
2021/12/29 01:02:01;;;;;;;55.65;17.08;;;;;;;-12.18;100.00;100648.38;5030934;28;20479;-64
2021/12/29 01:04:27;;;;;;;54.90;15.93;;;;;;;-11.98;100.00;100674.63;5029193;28;20049;-63
2021/12/29 01:06:54;;;;;;;56.85;16.38;;;;;;;-12.25;100.00;100643.09;5028874;28;20044;-63
2021/12/29 01:09:20;;;;;;;54.90;15.32;;;;;;;-12.21;100.00;100642.25;5012420;28;20079;-63
2021/12/29 01:11:45;;;;;;;55.65;16.35;;;;;;;-12.25;100.00;100640.50;5013031;28;20397;-63
2021/12/29 01:14:11;;;;;;;65.40;16.73;;;;;;;-12.16;100.00;100661.44;5012631;28;20098;-64
2021/12/29 01:16:37;;;;;;;56.90;16.42;;;;;;;-12.09;100.00;100676.28;5029242;28;20045;-64
2021/12/29 01:19:08;;;;;;;50.38;14.13;;;;;;;-12.04;100.00;100677.19;5030364;28;20149;-63
2021/12/29 01:21:34;;;;;;;37.70;11.68;;;;;;;-12.11;100.00;100649.31;5012157;28;20042;-62
2021/12/29 01:24:02;;;;;;;46.28;17.17;;;;;;;-11.94;100.00;100668.59;4996047;28;20195;-66
2021/12/29 01:26:28;;;;;;;48.50;17.20;;;;;;;-12.02;100.00;100644.19;5030007;28;20137;-62
2021/12/29 01:28:53;;;;;;;48.00;14.88;;;;;;;-11.89;100.00;100666.00;5030282;28;20061;-62
2021/12/29 01:31:19;;;;;;;40.92;15.60;;;;;;;-11.88;100.00;100646.03;5012233;28;20049;-64
2021/12/29 01:33:45;;;;;;;40.05;12.63;;;;;;;-11.86;100.00;100657.34;4979794;28;20094;-64
2021/12/29 01:36:11;;;;;;;40.17;13.07;;;;;;;-11.88;100.00;100656.47;5012487;28;20160;-63
2021/12/29 01:38:37;;;;;;;46.03;13.48;;;;;;;-12.02;100.00;100644.19;5030326;28;20037;-64
2021/12/29 01:41:03;;;;;;;43.00;14.75;;;;;;;-12.11;100.00;100633.69;5030243;28;20678;-63
2021/12/29 01:43:29;;;;;;;57.35;16.30;;;;;;;-12.09;100.00;100663.25;5032088;28;20128;-61
2021/12/29 01:45:54;;;;;;;59.25;17.10;;;;;;;-12.15;100.00;100668.38;5033732;28;20049;-63
2021/12/29 01:48:20;;;;;;;64.50;17.50;;;;;;;-12.19;100.00;100661.41;5035974;28;20123;-62
2021/12/29 01:50:50;;;;;;;68.65;15.23;;;;;;;-12.32;100.00;100655.22;5019281;28;20057;-63
2021/12/29 01:53:28;;;;;;;55.40;17.52;;;;;;;-12.45;100.00;100627.28;5033343;28;20047;-63
2021/12/29 01:55:54;;;;;;;;;;;;;;;-12.27;100.00;100655.25;5034169;28;20524;-61
2021/12/29 01:58:20;;;;;;;57.70;16.27;;;;;;;-12.29;100.00;100659.56;5016516;28;19925;-63
2021/12/29 02:00:47;;;;;;;66.80;15.15;;;;;;;-12.26;100.00;100676.09;5016342;28;20048;-64
2021/12/29 02:03:13;;;;;;;58.78;15.35;;;;;;;-12.30;100.00;100657.81;5032662;28;20046;-62
2021/12/29 02:05:40;;;;;;;38.97;13.90;;;;;;;-12.24;100.00;100668.31;5032763;28;20136;-63
2021/12/29 02:08:06;;;;;;;52.28;15.15;;;;;;;-12.28;100.00;100654.38;5032758;28;20055;-64
2021/12/29 02:10:39;;;;;;;47.10;13.85;;;;;;;-12.23;100.00;100665.72;5032752;28;20092;-63
2021/12/29 02:13:05;;;;;;;22.25;9.02;;;;;;;-12.21;100.00;100652.69;5033995;28;20045;-63
2021/12/29 02:15:31;;;;;;;27.85;8.43;;;;;;;-12.22;100.00;100661.38;5033627;28;20127;-62
2021/12/29 02:17:57;;;;;;;30.27;8.85;;;;;;;-12.26;100.00;100649.19;5015416;28;20148;-62
2021/12/29 02:20:23;;;;;;;35.53;13.05;;;;;;;-12.21;100.00;100655.28;5032783;28;20370;-64
2021/12/29 02:22:59;;;;;;;36.65;11.23;;;;;;;-12.26;100.00;100649.19;5034418;28;20064;-63
2021/12/29 02:25:46;;;;;;;14.75;6.22;;;;;;;-12.23;100.00;100649.22;5034070;28;20456;-64
2021/12/29 02:28:13;;;;;;;26.50;9.18;;;;;;;-12.25;100.00;100653.50;5016279;28;20046;-64
2021/12/29 02:30:39;;;;;;;33.67;9.32;;;;;;;-12.21;100.00;100670.91;5032729;28;20107;-64
2021/12/29 02:33:06;;;;;;;25.30;8.95;;;;;;;-12.28;100.00;100654.38;5032321;28;20038;-63
2021/12/29 02:35:32;;;;;;;23.67;7.28;;;;;;;-12.28;100.00;100663.94;5016585;28;20093;-65
2021/12/29 02:38:00;;;;;;;34.78;10.48;;;;;;;-12.25;100.00;100671.75;5034037;28;20057;-65
2021/12/29 02:40:26;;;;;;;34.22;11.27;;;;;;;-12.23;100.00;100680.47;5033524;28;20045;-63
2021/12/29 02:42:52;;;;;;;23.98;8.05;;;;;;;-12.24;100.00;100673.53;5032038;28;20509;-63
2021/12/29 02:45:21;;;;;;;22.63;7.40;;;;;;;-12.28;100.00;100675.22;5031967;28;20118;-63
2021/12/29 02:47:48;;;;;;;41.15;11.23;;;;;;;-12.23;100.00;100670.91;5031965;28;20061;-64
2021/12/29 02:50:15;;;;;;;35.35;10.15;;;;;;;-12.26;100.00;100654.38;5033302;28;20049;-63
2021/12/29 02:52:43;;;;;;;27.13;9.77;;;;;;;-12.28;100.00;100645.69;5031568;28;20057;-63
2021/12/29 02:55:09;;;;;;;26.45;9.27;;;;;;;-12.45;100.00;100617.72;5030807;28;20417;-63
2021/12/29 02:57:35;;;;;;;21.00;7.65;;;;;;;-12.32;100.00;100659.53;5016569;28;20141;-63
2021/12/29 03:00:01;;;;;;;23.08;8.85;;;;;;;-12.34;100.00;100658.66;4999825;28;20127;-65
2021/12/29 03:02:29;;;;;;;33.15;9.45;;;;;;;-12.54;100.00;100628.06;5016203;28;20045;-64
2021/12/29 03:04:57;;;;;;;30.67;9.27;;;;;;;-12.30;100.00;100652.59;5033828;28;20051;-66
2021/12/29 03:07:23;;;;;;;31.02;9.98;;;;;;;-12.46;100.00;100636.84;5016048;28;20099;-63
2021/12/29 03:09:49;;;;;;;29.25;9.30;;;;;;;-12.42;100.00;100638.59;5015622;28;20041;-63
2021/12/29 03:12:15;;;;;;;26.50;6.05;;;;;;;-12.34;100.00;100653.44;5000106;28;20064;-63
2021/12/29 03:14:52;;;;;;;40.22;9.70;;;;;;;-12.41;100.00;100647.28;4999414;28;20049;-63
2021/12/29 03:17:18;;;;;;;34.35;11.50;;;;;;;-12.40;100.00;100642.09;5016549;28;20139;-63
2021/12/29 03:19:44;;;;;;;34.13;10.20;;;;;;;-12.58;100.00;100626.25;4999618;28;20046;-70
2021/12/29 03:22:10;;;;;;;35.08;9.80;;;;;;;-12.40;100.00;100649.03;5033068;28;20103;-64
2021/12/29 03:24:36;;;;;;;21.20;7.57;;;;;;;-12.41;100.00;100650.75;5031934;28;20050;-63
2021/12/29 03:27:02;;;;;;;15.48;4.43;;;;;;;-12.55;100.00;100647.13;4998811;28;20449;-64
2021/12/29 03:29:27;;;;;;;28.52;8.82;;;;;;;-12.63;100.00;100626.22;5031150;28;20052;-64
2021/12/29 03:31:53;;;;;;;41.92;12.73;;;;;;;-12.46;100.00;100657.66;5030943;28;20038;-62
2021/12/29 03:34:19;;;;;;;36.63;10.45;;;;;;;-12.45;100.00;100662.00;5030712;28;20049;-63
2021/12/29 03:36:45;;;;;;;32.15;11.32;;;;;;;-12.37;100.00;100661.22;5030315;28;20046;-62
2021/12/29 03:39:11;;;;;;;22.42;8.70;;;;;;;-12.40;100.00;100655.09;5014186;28;20046;-63
2021/12/29 03:41:37;;;;;;;40.53;8.63;;;;;;;-12.45;100.00;100649.00;5030434;28;20518;-64
2021/12/29 03:44:03;;;;;;;29.42;7.40;;;;;;;-12.67;100.00;100610.56;5031539;28;20126;-64
2021/12/29 03:46:29;;;;;;;40.25;10.27;;;;;;;-12.56;100.00;100629.78;5030623;28;20128;-63
2021/12/29 03:48:55;;;;;;;14.15;5.30;;;;;;;-12.64;100.00;100631.44;5014145;28;20490;-64
2021/12/29 03:51:21;;;;;;;36.88;10.73;;;;;;;-12.87;100.00;100602.50;5030168;28;20045;-64
2021/12/29 03:53:46;;;;;;;24.33;8.27;;;;;;;-12.70;100.00;100636.56;5013298;28;20076;-64
2021/12/29 03:56:13;;;;;;;23.42;7.38;;;;;;;-12.85;100.00;100615.56;4997704;28;20073;-63
2021/12/29 03:58:41;;;;;;;14.77;6.05;;;;;;;-13.00;100.00;100598.91;5030366;28;20052;-63
2021/12/29 04:01:09;;;;;;;27.55;9.05;;;;;;;-12.83;100.00;100639.88;5013969;28;20107;-65
2021/12/29 04:03:35;;;;;;;18.90;6.47;;;;;;;-12.88;100.00;100638.06;5029499;28;20133;-63
2021/12/29 04:06:01;;;;;;;38.83;10.95;;;;;;;-12.92;100.00;100631.09;4997348;28;20074;-63
2021/12/29 04:08:27;;;;;;;25.65;7.95;;;;;;;-12.82;100.00;100641.63;5013253;28;20077;-64
2021/12/29 04:10:53;;;;;;;30.38;9.75;;;;;;;-12.70;100.00;100647.84;5013691;28;20087;-63
2021/12/29 04:13:19;;;;;;;27.55;10.43;;;;;;;-12.76;100.00;100631.28;5030689;28;20202;-64
2021/12/29 04:15:45;;;;;;;18.05;5.43;;;;;;;-12.69;100.00;100638.28;5013308;28;20126;-64
2021/12/29 04:18:27;;;;;;;26.50;8.93;;;;;;;-12.66;100.00;100643.53;5029791;28;20076;-64
2021/12/29 04:20:55;;;;;;;30.60;9.55;;;;;;;-12.81;100.00;100606.94;5032373;28;20103;-63
2021/12/29 04:23:23;;;;;;;13.63;5.18;;;;;;;-12.67;100.00;100636.59;5029630;28;20057;-64
2021/12/29 04:25:52;;;;;;;28.92;8.20;;;;;;;-12.68;100.00;100629.66;5029635;28;20060;-63
2021/12/29 04:28:23;;;;;;;26.45;7.93;;;;;;;-12.73;100.00;100636.50;5013608;28;20489;-63
2021/12/29 04:31:02;;;;;;;33.83;7.63;;;;;;;-12.76;100.00;100631.28;5030384;28;20590;-64
2021/12/29 04:33:29;;;;;;;26.60;9.07;;;;;;;-12.76;100.00;100631.28;5031210;28;20037;-64
2021/12/29 04:35:54;;;;;;;12.20;4.28;;;;;;;-12.81;100.00;100617.34;5029605;28;20046;-64
2021/12/29 04:38:21;;;;;;;28.02;7.38;;;;;;;-12.86;100.00;100619.03;5013061;28;20056;-63
2021/12/29 04:40:49;;;;;;;24.83;9.02;;;;;;;-12.95;100.00;100610.22;5030780;28;20045;-64
2021/12/29 04:43:17;;;;;;;23.60;7.30;;;;;;;-12.90;100.00;100621.59;5029144;28;20076;-64
2021/12/29 04:45:44;;;;;;;13.55;5.00;;;;;;;-13.27;100.00;100564.78;5030603;28;20142;-65
2021/12/29 04:48:13;;;;;;;12.27;4.75;;;;;;;-12.95;100.00;100610.22;5029608;28;20077;-64
2021/12/29 04:50:51;;;;;;;20.77;5.70;;;;;;;-12.95;100.00;100605.03;5029400;28;20069;-64
2021/12/29 04:53:17;;;;;;;;;;;;;;;-12.86;100.00;100619.03;5031053;28;20045;-65
2021/12/29 04:55:45;;;;;;;11.63;4.15;;;;;;;-12.88;100.00;100604.25;5012628;28;19935;-64
2021/12/29 04:58:12;;;;;;;22.05;6.25;;;;;;;-12.88;100.00;100611.19;4996456;28;20059;-64
2021/12/29 05:00:38;;;;;;;18.40;5.75;;;;;;;-12.97;100.00;100591.16;5028691;28;20136;-64
2021/12/29 05:03:05;;;;;;;23.02;7.57;;;;;;;-12.86;100.00;100603.41;5003229;28;20049;-64
2021/12/29 05:10:43;;;;;;;23.02;8.88;;;;;;;-12.74;100.00;100624.38;5026086;28;20045;-63
2021/12/29 05:13:09;;;;;;;17.73;4.65;;;;;;;-12.88;100.00;100624.19;4969793;28;20037;-64
2021/12/29 05:15:35;;;;;;;29.50;8.68;;;;;;;-12.85;100.00;100621.63;5019899;28;20076;-64
2021/12/29 05:18:02;;;;;;;19.73;5.53;;;;;;;-13.13;100.00;100589.19;5017506;28;20073;-64
2021/12/29 05:20:29;;;;;;;18.88;5.38;;;;;;;-12.94;100.00;100632.81;5010837;28;20042;-64
2021/12/29 05:22:56;;;;;;;29.33;8.45;;;;;;;-13.05;100.00;100611.00;5008866;28;20123;-63
2021/12/29 05:25:22;;;;;;;22.35;7.25;;;;;;;-12.89;100.00;100641.53;4995001;28;20080;-64
2021/12/29 05:27:48;;;;;;;34.65;9.77;;;;;;;-13.21;100.00;100596.03;5004722;28;20147;-63
2021/12/29 05:30:14;;;;;;;13.45;4.95;;;;;;;-12.96;100.00;100623.25;4998087;28;20048;-63
2021/12/29 05:32:40;;;;;;;44.63;13.57;;;;;;;-13.01;100.00;100625.78;4989978;28;20425;-63
2021/12/29 05:35:07;;;;;;;43.85;13.13;;;;;;;-13.08;100.00;100623.97;4998022;28;20046;-63
2021/12/29 05:37:33;;;;;;;23.23;9.13;;;;;;;-13.07;100.00;100620.50;5011635;28;20046;-64
2021/12/29 05:39:59;;;;;;;23.50;7.63;;;;;;;-13.08;100.00;100591.88;4991320;28;20615;-65
2021/12/29 05:42:24;;;;;;;38.45;11.77;;;;;;;-12.88;100.00;100619.88;5001897;28;20124;-59
2021/12/29 05:44:50;;;;;;;9.82;2.85;;;;;;;-12.92;100.00;100615.47;4992351;28;20041;-64
2021/12/29 05:47:16;;;;;;;17.67;5.82;;;;;;;-13.06;100.00;100611.84;5013953;28;20401;-66
2021/12/29 05:49:42;;;;;;;22.70;6.70;;;;;;;-12.98;100.00;100612.81;5017974;28;20057;-68
2021/12/29 05:52:08;;;;;;;24.02;6.30;;;;;;;-13.07;100.00;100610.09;5023422;28;21697;-65
2021/12/29 05:54:34;;;;;;;22.17;6.10;;;;;;;-13.13;100.00;100599.59;5012011;28;20378;-65
2021/12/29 05:57:00;;;;;;;41.65;11.80;;;;;;;-13.05;100.00;100624.00;5020007;28;20470;-73
2021/12/29 05:59:25;;;;;;;29.27;9.85;;;;;;;-13.16;100.00;100607.38;5022928;28;20076;-66
2021/12/29 06:01:51;;;;;;;26.80;6.93;;;;;;;-13.29;100.00;100592.50;5009594;28;20081;-66
2021/12/29 06:04:17;;;;;;;23.17;8.52;;;;;;;-13.10;100.00;100620.47;4992768;28;20042;-65
2021/12/29 06:06:43;;;;;;;17.50;7.05;;;;;;;-13.26;100.00;100597.75;5000086;28;20038;-64
2021/12/29 06:09:09;;;;;;;45.72;14.05;;;;;;;-13.07;100.00;100628.31;5020811;28;20041;-64
2021/12/29 06:11:34;;;;;;;43.38;13.95;;;;;;;-13.06;100.00;100627.44;4978538;28;20049;-64
2021/12/29 06:14:00;;;;;;;51.30;12.88;;;;;;;-13.01;100.00;100630.13;5034146;28;20061;-64
2021/12/29 06:16:27;;;;;;;66.68;18.10;;;;;;;-13.06;100.00;100639.59;5028678;28;20528;-64
2021/12/29 06:18:54;;;;;;;65.68;16.10;;;;;;;-13.02;100.00;100631.84;5020123;28;20042;-65
2021/12/29 06:21:20;;;;;;;50.25;14.60;;;;;;;-12.95;100.00;100631.06;5040852;28;20037;-64
2021/12/29 06:23:47;;;;;;;36.55;13.35;;;;;;;-12.86;100.00;100626.84;5006731;28;20065;-65
2021/12/29 06:26:13;;;;;;;31.77;11.15;;;;;;;-12.86;100.00;100625.09;5013217;28;20163;-65
2021/12/29 06:28:40;;;;;;;32.38;10.02;;;;;;;-12.93;100.00;100605.94;5038258;28;20037;-65
2021/12/29 06:31:06;;;;;;;31.05;11.07;;;;;;;-12.80;100.00;100632.97;4997150;28;20132;-67
2021/12/29 06:33:32;;;;;;;19.17;7.53;;;;;;;-12.89;100.00;100625.94;5013457;28;20123;-64
2021/12/29 06:35:58;;;;;;;33.38;10.27;;;;;;;-13.03;100.00;100604.06;5011496;28;20132;-64
2021/12/29 06:38:24;;;;;;;42.47;11.82;;;;;;;-12.80;100.00;100629.50;5028772;28;20136;-64
2021/12/29 06:40:50;;;;;;;29.75;8.05;;;;;;;-12.81;100.00;100630.34;5045126;28;20049;-64
2021/12/29 06:43:16;;;;;;;22.13;7.85;;;;;;;-12.80;100.00;100630.34;5013120;28;20450;-64
2021/12/29 06:45:42;;;;;;;27.73;9.95;;;;;;;-12.83;100.00;100608.63;4992621;28;20071;-64
2021/12/29 06:48:08;;;;;;;47.92;13.43;;;;;;;-12.70;100.00;100645.22;5012235;28;20041;-64
2021/12/29 06:50:34;;;;;;;30.02;12.43;;;;;;;-12.79;100.00;100610.44;5011154;28;20527;-64
2021/12/29 06:53:00;;;;;;;24.27;8.50;;;;;;;-12.57;100.00;100640.19;5029775;28;20060;-65
2021/12/29 06:55:25;;;;;;;32.10;10.88;;;;;;;-12.63;99.84;100640.97;5031387;28;20481;-64
2021/12/29 06:57:51;;;;;;;37.25;12.32;;;;;;;-12.71;99.97;100614.00;5030575;28;20037;-65
2021/12/29 07:00:18;;;;;;;42.05;12.73;;;;;;;-12.67;99.56;100626.19;4992108;28;20052;-64
2021/12/29 07:02:44;;;;;;;32.03;10.60;;;;;;;-12.63;100.00;100627.97;5031049;28;20139;-64
2021/12/29 07:05:10;;;;;;;48.70;14.43;;;;;;;-12.78;99.68;100604.38;5043580;28;20560;-64
2021/12/29 07:07:35;;;;;;;32.35;10.80;;;;;;;-12.73;99.32;100626.09;5010593;28;20042;-65
2021/12/29 07:10:03;;;;;;;35.35;11.20;;;;;;;-12.72;98.68;100627.84;4998334;28;20050;-64
2021/12/29 07:12:29;;;;;;;55.33;18.33;;;;;;;-12.74;98.61;100624.38;5042967;28;20452;-64
2021/12/29 07:14:54;;;;;;;32.40;12.35;;;;;;;-12.91;98.20;100595.53;4995529;28;20045;-64
2021/12/29 07:17:20;;;;;;;34.65;10.48;;;;;;;-12.78;98.87;100622.59;5013056;28;20392;-64
2021/12/29 07:19:46;;;;;;;30.48;10.93;;;;;;;-13.02;98.85;100578.91;5031254;28;20045;-64
2021/12/29 07:22:12;;;;;;;25.17;8.40;;;;;;;-12.73;98.90;100626.97;5012460;28;20048;-64
2021/12/29 07:24:38;;;;;;;49.00;16.15;;;;;;;-12.88;98.49;100596.44;5001141;28;20041;-64
2021/12/29 07:27:04;;;;;;;18.98;9.77;;;;;;;-12.70;98.51;100631.34;4997147;28;20037;-64
2021/12/29 07:29:30;;;;;;;24.08;8.73;;;;;;;-12.67;98.87;100631.38;5030623;28;20053;-64
2021/12/29 07:31:58;;;;;;;24.13;8.07;;;;;;;-12.90;98.45;100587.75;5030652;28;20041;-64
2021/12/29 07:34:25;;;;;;;33.55;11.50;;;;;;;-12.68;98.16;100619.25;5030214;28;20048;-64
2021/12/29 07:36:51;;;;;;;42.17;13.25;;;;;;;-13.01;98.16;100558.16;5012074;28;20049;-64
2021/12/29 07:39:17;;;;;;;19.27;9.98;;;;;;;-12.64;98.18;100613.22;5019959;28;20086;-64
2021/12/29 07:41:43;;;;;;;33.63;11.80;;;;;;;-12.68;97.58;100603.63;5015638;28;20055;-63
2021/12/29 07:44:17;;;;;;;40.13;9.55;;;;;;;-12.66;97.89;100612.28;4992480;28;20577;-64
2021/12/29 07:46:46;;;;;;;55.97;16.80;;;;;;;-12.58;97.84;100615.84;5032610;28;20134;-64
2021/12/29 07:49:13;;;;;;;31.20;11.18;;;;;;;-12.81;97.26;100580.91;5036990;28;20052;-64
2021/12/29 07:51:42;;;;;;;42.25;14.27;;;;;;;-12.72;97.16;100580.97;5031816;28;20049;-64
2021/12/29 07:54:08;;;;;;;25.73;6.68;;;;;;;-12.69;96.65;100591.44;5042636;28;20044;-66
2021/12/29 07:56:34;;;;;;;33.10;11.25;;;;;;;-12.63;96.68;100596.72;5015756;28;20108;-65
2021/12/29 07:59:00;;;;;;;32.38;10.02;;;;;;;-12.82;96.42;100576.56;4982162;28;20052;-64
2021/12/29 08:01:26;;;;;;;50.83;16.60;;;;;;;-12.85;96.25;100558.31;4978913;28;20045;-64
2021/12/29 08:03:52;;;;;;;37.88;13.77;;;;;;;-12.89;95.89;100553.06;4988948;28;20041;-64
2021/12/29 08:06:19;;;;;;;17.15;6.78;;;;;;;-12.69;94.71;100607.94;5035317;28;20057;-64
2021/12/29 08:08:45;;;;;;;34.60;11.40;;;;;;;-12.66;94.38;100596.69;5019210;28;20165;-64
2021/12/29 08:11:11;;;;;;;34.42;12.75;;;;;;;-12.19;93.91;100593.66;5031512;28;20056;-64
2021/12/29 08:13:37;;;;;;;54.97;18.13;;;;;;;-11.91;93.06;100589.56;5031132;28;20068;-64
2021/12/29 08:16:04;;;;;;;51.03;16.80;;;;;;;-11.94;92.01;100569.53;5033571;28;20497;-65
2021/12/29 08:18:29;;;;;;;38.75;13.88;;;;;;;-11.62;89.84;100574.06;4996754;28;20061;-65
2021/12/29 08:20:55;;;;;;;52.83;17.77;;;;;;;-11.52;89.29;100573.25;5032764;28;20041;-69
2021/12/29 08:23:21;;;;;;;49.88;17.05;;;;;;;-11.01;87.90;100571.75;4998989;28;20073;-66
2021/12/29 08:25:47;;;;;;;63.05;20.08;;;;;;;-10.68;85.15;100559.66;5033778;28;20117;-64
2021/12/29 08:28:13;;;;;;;53.78;15.93;;;;;;;-10.48;85.52;100547.50;4982073;28;20034;-65
2021/12/29 08:30:40;;;;;;;58.78;20.42;;;;;;;-9.41;82.87;100556.09;5048158;28;20098;-64
2021/12/29 08:33:06;;;;;;;55.05;18.95;;;;;;;-7.99;78.57;100572.75;5001766;28;20037;-64
2021/12/29 08:35:32;;;;;;;65.05;19.27;;;;;;;-8.19;75.30;100560.69;5026012;28;20042;-65
2021/12/29 08:37:58;;;;;;;62.20;19.83;;;;;;;-7.73;73.63;100565.50;5045128;28;20491;-64
2021/12/29 08:40:25;;;;;;;46.78;15.18;;;;;;;-6.84;69.40;100560.16;5042458;28;20041;-65
2021/12/29 08:42:51;;;;;;;61.78;18.90;;;;;;;-6.69;68.87;100518.75;5003524;28;20076;-65
2021/12/29 08:45:18;;;;;;;53.70;19.88;;;;;;;-6.52;66.29;100550.06;4993486;28;20429;-65
2021/12/29 08:47:45;;;;;;;56.08;19.65;;;;;;;-7.16;67.22;100541.28;5030767;28;20077;-66
2021/12/29 08:50:14;;;;;;;60.30;18.75;;;;;;;-6.29;65.35;100542.69;5035921;28;20497;-65
2021/12/29 08:52:40;;;;;;;65.63;20.17;;;;;;;-5.58;62.39;100548.50;5027551;28;20045;-63
2021/12/29 08:55:07;;;;;;;48.72;17.70;;;;;;;-6.23;60.84;100547.88;5012931;28;20125;-66
2021/12/29 08:57:33;;;;;;;67.15;22.52;;;;;;;-7.25;63.27;100520.38;5022997;28;20132;-66
2021/12/29 08:59:59;;;;;;;61.35;22.45;;;;;;;-7.64;64.47;100528.69;5007129;28;20038;-65
2021/12/29 09:02:25;;;;;;;42.58;15.65;;;;;;;-6.41;60.79;100548.16;4997280;28;20141;-68
2021/12/29 09:04:52;;;;;;;64.88;23.33;;;;;;;-7.30;63.07;100528.31;5018311;28;20125;-67
2021/12/29 09:07:18;;;;;;;68.03;22.80;;;;;;;-7.29;63.35;100522.16;5027247;28;20073;-66
2021/12/29 09:09:44;;;;;;;64.45;22.90;;;;;;;-7.88;64.79;100528.91;4999960;28;20044;-65
2021/12/29 09:12:10;;;;;;;63.47;20.75;;;;;;;-8.15;65.98;100491.56;5008460;28;20117;-65
2021/12/29 09:14:36;;;;;;;41.70;13.55;;;;;;;-7.95;65.80;100530.72;5023636;28;20073;-64
2021/12/29 09:17:02;;;;;;;45.25;16.65;;;;;;;-7.29;64.09;100519.53;5024377;28;20045;-64
2021/12/29 09:19:30;;;;;;;71.20;21.75;;;;;;;-8.29;66.63;100517.03;5023631;28;20095;-68
2021/12/29 09:21:56;;;;;;;69.57;26.83;;;;;;;-7.75;66.67;100525.31;5012599;28;20146;-67
2021/12/29 09:24:22;;;;;;;66.82;22.58;;;;;;;-8.26;67.25;100527.50;5016982;28;20441;-64
2021/12/29 09:26:48;;;;;;;59.22;19.63;;;;;;;-6.76;62.44;100515.34;5017020;28;20052;-68
2021/12/29 09:29:14;;;;;;;63.33;23.38;;;;;;;-5.93;60.41;100525.44;4979270;28;20049;-68
2021/12/29 09:31:40;;;;;;;65.32;22.35;;;;;;;-5.75;59.12;100508.41;4990592;28;20040;-66
2021/12/29 09:34:07;;;;;;;78.13;23.25;;;;;;;-4.95;56.14;100493.66;4997445;28;20049;-67
2021/12/29 09:36:33;;;;;;;76.07;24.02;;;;;;;-4.18;54.69;100496.25;4973125;28;20501;-66
2021/12/29 09:39:00;;;;;;;64.55;22.17;;;;;;;-3.67;52.55;100501.13;5012685;28;20042;-66
2021/12/29 09:41:26;;;;;;;51.08;18.60;;;;;;;-3.47;51.73;100478.59;4998474;28;20060;-67
2021/12/29 09:43:53;;;;;;;61.58;20.65;;;;;;;-3.67;52.46;100487.91;5024611;28;20054;-65
2021/12/29 09:46:19;;;;;;;66.53;20.73;;;;;;;-3.95;52.96;100460.47;5007870;28;20060;-66
2021/12/29 09:48:45;;;;;;;60.65;20.17;;;;;;;-4.01;52.38;100465.94;4999409;28;20037;-65
2021/12/29 09:51:13;;;;;;;58.22;21.15;;;;;;;-3.84;52.41;100468.97;4985428;28;20041;-65
2021/12/29 09:53:40;;;;;;;75.28;26.08;;;;;;;-3.61;51.69;100481.59;5027172;28;20504;-65
2021/12/29 09:56:06;;;;;;;95.70;29.35;;;;;;;-4.02;52.49;100477.38;5012401;28;20056;-65
2021/12/29 09:58:32;;;;;;;93.00;31.25;;;;;;;-3.80;52.46;100481.22;5022932;28;20125;-65
2021/12/29 10:01:00;;;;;;;95.55;29.20;;;;;;;-3.16;50.73;100474.13;4978529;28;20037;-64
2021/12/29 10:03:28;;;;;;;84.88;25.67;;;;;;;-3.92;51.40;100440.13;5020966;28;20061;-65
2021/12/29 10:05:58;;;;;;;74.15;24.13;;;;;;;-3.45;49.66;100447.69;4998331;28;20055;-65
2021/12/29 10:08:31;;;;;;;81.80;26.63;;;;;;;-3.26;49.47;100472.66;5032095;28;20085;-65
2021/12/29 10:11:06;;;;;;;80.20;29.08;;;;;;;-3.28;49.83;100450.72;4985170;28;20131;-65
2021/12/29 10:13:34;;;;;;;85.15;27.88;;;;;;;-2.86;48.38;100452.13;5032092;28;20041;-65
2021/12/29 10:16:02;;;;;;;68.93;22.00;;;;;;;-3.34;49.00;100458.81;5037515;28;20440;-65
2021/12/29 10:18:30;;;;;;;73.72;23.42;;;;;;;-3.83;49.56;100449.59;5046143;28;20566;-66
2021/12/29 10:20:59;;;;;;;58.17;20.92;;;;;;;-4.03;49.37;100436.06;5027584;28;20049;-65
2021/12/29 10:23:36;;;;;;;65.65;24.27;;;;;;;-3.84;49.58;100453.13;5016508;28;20030;-65
2021/12/29 10:26:16;;;;;;;59.40;19.13;;;;;;;-4.45;49.73;100429.19;4995707;28;20057;-65
2021/12/29 10:28:49;;;;;;;71.18;24.13;;;;;;;-3.90;49.44;100437.47;5043684;28;20041;-64
2021/12/29 10:31:24;;;;;;;69.43;22.40;;;;;;;-3.81;49.13;100436.34;5042172;28;20041;-65
2021/12/29 10:33:56;;;;;;;68.18;23.48;;;;;;;-3.91;48.97;100435.75;5035510;28;20395;-66
2021/12/29 10:36:30;;;;;;;78.75;25.75;;;;;;;-4.53;50.81;100435.53;5039911;28;20098;-66
2021/12/29 10:39:11;;;;;;;88.72;26.98;;;;;;;-4.53;50.04;100411.81;5017643;28;20049;-66
2021/12/29 10:41:48;;;;;;;60.08;20.88;;;;;;;-4.71;51.30;100435.09;5015427;28;20061;-66
2021/12/29 10:44:13;;;;;;;;;;;;;;;-4.74;50.90;100426.41;5021897;28;20472;-66
2021/12/29 10:46:40;;;;;;;74.72;25.08;;;;;;;-4.95;51.47;100423.34;4989907;28;19921;-66
2021/12/29 10:49:08;;;;;;;58.67;19.73;;;;;;;-4.90;50.49;100388.94;5015055;28;20075;-66
2021/12/29 10:51:40;;;;;;;73.15;27.08;;;;;;;-5.11;51.38;100427.22;5034626;28;20056;-67
2021/12/29 10:54:19;;;;;;;71.50;25.75;;;;;;;-5.22;51.79;100424.84;5036812;28;20048;-65
2021/12/29 10:57:03;;;;;;;43.63;16.38;;;;;;;-5.44;52.77;100429.69;5011408;28;20132;-65
2021/12/29 10:59:32;;;;;;;61.88;22.20;;;;;;;-5.25;52.50;100419.63;5005021;28;20163;-65
2021/12/29 11:01:58;;;;;;;65.57;21.98;;;;;;;-5.35;51.89;100407.53;5016692;28;20054;-66
2021/12/29 11:04:24;;;;;;;75.25;25.33;;;;;;;-5.38;51.23;100361.03;5025232;28;20044;-65
2021/12/29 11:06:51;;;;;;;59.15;23.00;;;;;;;-5.63;52.22;100408.13;5027573;28;20052;-66
2021/12/29 11:09:43;;;;;;;56.85;19.27;;;;;;;-5.57;52.27;100404.50;5055264;28;20144;-66